Time;durP1;ratioP1;P1;durP2;ratioP2;P2;SDS_P1;SDS_P2;PMS_P1;PMS_P2;Temp;Humidity;BMP_temperature;BMP_pressure;BME280_temperature;BME280_humidity;BME280_pressure;Samples;Min_cycle;Max_cycle;Signal;HPM_P1;HPM_P2
2022/03/10 00:02:21;;;;;;;3.22;2.10;;;9.70;99.90;;;;;;5059619;28;20084;-61
2022/03/10 00:04:48;;;;;;;2.63;1.92;;;9.70;99.90;;;;;;5059382;28;20518;-61
2022/03/10 00:07:14;;;;;;;3.65;2.50;;;9.70;99.90;;;;;;5060688;28;20083;-61
2022/03/10 00:09:41;;;;;;;3.28;2.03;;;9.70;99.90;;;;;;5060747;28;20139;-61
2022/03/10 00:12:08;;;;;;;3.08;2.10;;;9.80;99.90;;;;;;5060832;28;20131;-61
2022/03/10 00:14:34;;;;;;;3.30;2.33;;;9.80;99.90;;;;;;5059543;28;20139;-61
2022/03/10 00:17:01;;;;;;;2.85;2.17;;;9.80;99.90;;;;;;5060217;28;20045;-61
2022/03/10 00:19:28;;;;;;;4.10;1.80;;;9.70;99.90;;;;;;5059766;28;20048;-61
2022/03/10 00:21:55;;;;;;;2.83;1.95;;;9.70;99.90;;;;;;5042682;28;20114;-61
2022/03/10 00:24:21;;;;;;;3.08;1.83;;;9.70;99.90;;;;;;5060132;28;20114;-61
2022/03/10 00:26:48;;;;;;;3.65;2.70;;;9.70;99.90;;;;;;5058251;28;20198;-61
2022/03/10 00:29:15;;;;;;;2.75;1.98;;;9.70;99.90;;;;;;5056924;28;20143;-61
2022/03/10 00:31:44;;;;;;;2.50;1.83;;;9.60;99.90;;;;;;5058675;28;20048;-61
2022/03/10 00:34:11;;;;;;;4.28;2.10;;;9.60;99.90;;;;;;5054175;28;20139;-62
2022/03/10 00:36:38;;;;;;;3.65;1.92;;;9.60;99.90;;;;;;5059857;28;20496;-61
2022/03/10 00:39:05;;;;;;;3.45;2.33;;;9.60;99.90;;;;;;5060503;28;20144;-61
2022/03/10 00:41:32;;;;;;;3.28;2.08;;;9.60;99.90;;;;;;5060653;28;20568;-61
2022/03/10 00:43:58;;;;;;;3.67;2.25;;;9.60;99.90;;;;;;5042019;28;20044;-61
2022/03/10 00:46:25;;;;;;;3.13;2.42;;;9.60;99.90;;;;;;5060130;28;20139;-61
2022/03/10 00:48:52;;;;;;;2.47;1.77;;;9.60;99.90;;;;;;5059146;28;20128;-61
2022/03/10 00:51:19;;;;;;;3.42;2.42;;;9.50;99.90;;;;;;5060310;28;20132;-61
2022/03/10 00:53:45;;;;;;;3.05;2.28;;;9.60;99.90;;;;;;5059486;28;20106;-61
2022/03/10 00:56:12;;;;;;;3.95;2.25;;;9.50;99.90;;;;;;5059411;28;20084;-61
2022/03/10 00:58:39;;;;;;;3.35;2.40;;;9.50;99.90;;;;;;5041869;28;20139;-61
2022/03/10 01:01:08;;;;;;;2.63;2.13;;;9.60;99.90;;;;;;5053316;28;20041;-61
2022/03/10 01:03:36;;;;;;;2.90;2.20;;;9.60;99.90;;;;;;5057797;28;20137;-61
2022/03/10 01:06:03;;;;;;;4.18;2.67;;;9.60;99.90;;;;;;5059100;28;20345;-61
2022/03/10 01:08:29;;;;;;;2.47;2.03;;;9.50;99.90;;;;;;5060539;28;20189;-61
2022/03/10 01:10:56;;;;;;;3.83;2.80;;;9.60;99.90;;;;;;5059675;28;20056;-61
2022/03/10 01:13:23;;;;;;;6.00;2.90;;;9.50;99.90;;;;;;5042486;28;20083;-61
2022/03/10 01:15:50;;;;;;;4.53;3.40;;;9.50;99.90;;;;;;5059429;28;20526;-60
2022/03/10 01:18:17;;;;;;;3.58;2.65;;;9.50;99.90;;;;;;5058865;28;20874;-61
2022/03/10 01:20:44;;;;;;;3.83;2.95;;;9.50;99.90;;;;;;5059816;28;20080;-61
2022/03/10 01:23:11;;;;;;;3.80;3.20;;;9.50;99.90;;;;;;5060060;28;20102;-61
2022/03/10 01:25:38;;;;;;;4.20;3.08;;;9.50;99.90;;;;;;5059558;28;20419;-61
2022/03/10 01:28:07;;;;;;;4.20;3.15;;;9.50;99.90;;;;;;5059755;28;20052;-61
2022/03/10 01:30:34;;;;;;;3.33;2.67;;;9.50;99.90;;;;;;5062129;28;20084;-61
2022/03/10 01:33:01;;;;;;;4.03;2.67;;;9.40;99.90;;;;;;5062893;28;20626;-61
2022/03/10 01:35:28;;;;;;;4.47;3.13;;;9.40;99.90;;;;;;5062553;28;20507;-61
2022/03/10 01:37:55;;;;;;;4.43;2.97;;;9.40;99.90;;;;;;5063895;28;20118;-61
2022/03/10 01:40:22;;;;;;;5.15;3.83;;;9.40;99.90;;;;;;5063149;28;20080;-61
2022/03/10 01:42:48;;;;;;;3.90;3.30;;;9.40;99.90;;;;;;5063715;28;20514;-61
2022/03/10 01:45:15;;;;;;;5.45;3.92;;;9.40;99.90;;;;;;5063189;28;20087;-60
2022/03/10 01:47:42;;;;;;;5.15;4.10;;;9.30;99.90;;;;;;5062618;28;20156;-61
2022/03/10 01:50:10;;;;;;;5.15;3.65;;;9.30;99.90;;;;;;5062176;28;20083;-61
2022/03/10 01:52:37;;;;;;;4.72;3.17;;;9.30;99.90;;;;;;5063859;28;20163;-61
2022/03/10 01:55:04;;;;;;;5.32;3.53;;;9.20;99.90;;;;;;5044810;28;20099;-61
2022/03/10 01:57:31;;;;;;;4.75;3.53;;;9.20;99.90;;;;;;5063210;28;20084;-61
2022/03/10 01:59:58;;;;;;;4.78;3.88;;;9.20;99.90;;;;;;5063566;28;20060;-61
2022/03/10 02:02:25;;;;;;;5.07;4.10;;;9.20;99.90;;;;;;5062638;28;20110;-61
2022/03/10 02:04:54;;;;;;;3.55;3.25;;;9.10;99.90;;;;;;5042617;28;20052;-61
2022/03/10 02:10:19;;;;;;;4.90;3.55;;;9.10;99.90;;;;;;5050067;28;20160;-61
2022/03/10 02:12:51;;;;;;;5.13;3.67;;;9.00;99.90;;;;;;5041296;28;20052;-60
2022/03/10 02:18:15;;;;;;;5.13;3.90;;;9.00;99.90;;;;;;5061771;28;20063;-60
2022/03/10 02:20:42;;;;;;;4.90;4.00;;;8.90;99.90;;;;;;5062357;28;20088;-61
2022/03/10 02:23:11;;;;;;;5.10;3.92;;;8.90;99.90;;;;;;5061836;28;20144;-61
2022/03/10 02:25:38;;;;;;;4.22;3.33;;;8.90;99.90;;;;;;5044473;28;20068;-61
2022/03/10 02:28:05;;;;;;;4.72;3.53;;;8.90;99.90;;;;;;5043930;28;20675;-61
2022/03/10 02:30:32;;;;;;;4.78;3.88;;;8.90;99.90;;;;;;5062689;28;20420;-61
2022/03/10 02:32:59;;;;;;;4.90;4.40;;;8.80;99.90;;;;;;5060914;28;20063;-61
2022/03/10 02:35:26;;;;;;;5.13;3.97;;;8.80;99.90;;;;;;5063447;28;20549;-61
2022/03/10 02:37:52;;;;;;;5.15;3.90;;;8.80;99.90;;;;;;5064754;28;20076;-61
2022/03/10 02:40:19;;;;;;;5.72;4.32;;;8.80;99.90;;;;;;5063270;28;20512;-61
2022/03/10 02:42:46;;;;;;;4.50;3.72;;;8.80;99.90;;;;;;5049926;28;20127;-61
2022/03/10 02:45:13;;;;;;;5.22;4.40;;;8.80;99.90;;;;;;5063251;28;20140;-62
2022/03/10 02:47:40;;;;;;;4.15;3.75;;;8.80;99.90;;;;;;5063543;28;20159;-61
2022/03/10 02:50:07;;;;;;;5.07;4.18;;;8.70;99.90;;;;;;5062837;28;20127;-61
2022/03/10 02:52:35;;;;;;;5.60;3.83;;;8.70;99.90;;;;;;5063903;28;20609;-61
2022/03/10 02:55:03;;;;;;;4.43;3.85;;;8.70;99.90;;;;;;5064066;28;20123;-61
2022/03/10 02:57:31;;;;;;;5.60;4.25;;;8.60;99.90;;;;;;5063847;28;20072;-61
2022/03/10 02:59:59;;;;;;;5.15;4.57;;;8.60;99.90;;;;;;5064298;28;20422;-61
2022/03/10 03:02:26;;;;;;;5.50;4.35;;;8.60;99.90;;;;;;5063398;28;20087;-61
2022/03/10 03:04:53;;;;;;;4.65;3.97;;;8.60;99.90;;;;;;5063361;28;20084;-61
2022/03/10 03:07:20;;;;;;;5.50;4.57;;;8.50;99.90;;;;;;5064174;28;20524;-61
2022/03/10 03:09:47;;;;;;;6.05;4.20;;;8.50;99.90;;;;;;5064168;28;20059;-61
2022/03/10 03:12:13;;;;;;;6.13;4.90;;;8.50;99.90;;;;;;5063115;28;20124;-61
2022/03/10 03:14:43;;;;;;;7.68;5.00;;;8.50;99.90;;;;;;5046509;28;20052;-61
2022/03/10 03:17:10;;;;;;;5.70;4.32;;;8.50;99.90;;;;;;5063769;28;20078;-61
2022/03/10 03:19:37;;;;;;;4.68;4.05;;;8.50;99.90;;;;;;5062666;28;20056;-61
2022/03/10 03:22:04;;;;;;;4.35;3.90;;;8.50;99.90;;;;;;5046224;28;20131;-61
2022/03/10 03:24:31;;;;;;;4.95;4.45;;;8.50;99.90;;;;;;5063844;28;20080;-61
2022/03/10 03:26:58;;;;;;;5.75;5.18;;;8.50;99.90;;;;;;5063320;28;20052;-61
2022/03/10 03:29:25;;;;;;;5.43;4.50;;;8.40;99.90;;;;;;5063630;28;20048;-61
2022/03/10 03:31:52;;;;;;;5.82;4.72;;;8.40;99.90;;;;;;5062710;28;20115;-61
2022/03/10 03:34:19;;;;;;;5.85;4.80;;;8.40;99.90;;;;;;5061749;28;20494;-61
2022/03/10 03:36:45;;;;;;;6.20;4.80;;;8.30;99.90;;;;;;5063698;28;20088;-62
2022/03/10 03:39:14;;;;;;;5.82;4.30;;;8.30;99.90;;;;;;5063098;28;20106;-62
2022/03/10 03:41:40;;;;;;;5.45;4.65;;;8.30;99.90;;;;;;5062709;28;20135;-62
2022/03/10 03:44:08;;;;;;;5.97;5.18;;;8.30;99.90;;;;;;5063175;28;20120;-61
2022/03/10 03:46:35;;;;;;;5.90;4.60;;;8.20;99.90;;;;;;5063901;28;20473;-61
2022/03/10 03:49:06;;;;;;;5.20;3.97;;;8.20;99.90;;;;;;5061735;28;20063;-61
2022/03/10 03:51:33;;;;;;;5.75;4.80;;;8.20;99.90;;;;;;5063254;28;20119;-61
2022/03/10 03:54:00;;;;;;;5.28;4.32;;;8.10;99.90;;;;;;5062013;28;20132;-60
2022/03/10 03:56:26;;;;;;;5.95;4.82;;;8.10;99.90;;;;;;5062708;28;20135;-61
2022/03/10 03:58:53;;;;;;;5.53;4.97;;;8.10;99.90;;;;;;5063179;28;20080;-61
2022/03/10 04:01:20;;;;;;;5.72;4.63;;;8.10;99.90;;;;;;5062615;28;20174;-61
2022/03/10 04:03:47;;;;;;;6.15;5.35;;;8.10;99.90;;;;;;5061641;28;20060;-58
2022/03/10 04:06:16;;;;;;;5.00;4.50;;;8.00;99.90;;;;;;5062358;28;20394;-62
2022/03/10 04:08:43;;;;;;;6.95;4.85;;;8.00;99.90;;;;;;5063008;28;20060;-61
2022/03/10 04:11:09;;;;;;;7.13;5.03;;;8.00;99.90;;;;;;5061840;28;20522;-59
2022/03/10 04:13:37;;;;;;;6.38;5.05;;;8.00;99.90;;;;;;5062464;28;20463;-61
2022/03/10 04:16:04;;;;;;;5.72;4.40;;;8.00;99.90;;;;;;5045134;28;20049;-62
2022/03/10 04:18:34;;;;;;;6.53;5.25;;;8.00;99.90;;;;;;5062176;28;20047;-62
2022/03/10 04:21:01;;;;;;;6.32;5.15;;;8.00;99.90;;;;;;5062797;28;20057;-62
2022/03/10 04:23:28;;;;;;;7.18;5.88;;;8.00;99.90;;;;;;5062732;28;20076;-61
2022/03/10 04:25:55;;;;;;;6.35;5.07;;;8.00;99.90;;;;;;5061698;28;20140;-61
2022/03/10 04:28:24;;;;;;;6.63;4.90;;;7.90;99.90;;;;;;5062320;28;20076;-61
2022/03/10 04:30:51;;;;;;;6.00;4.80;;;7.90;99.90;;;;;;5062415;28;20052;-61
2022/03/10 04:33:21;;;;;;;4.93;4.40;;;7.90;99.90;;;;;;5061116;28;20151;-61
2022/03/10 04:35:50;;;;;;;6.40;4.90;;;7.90;99.90;;;;;;5044704;28;20087;-61
2022/03/10 04:38:17;;;;;;;6.10;5.13;;;7.80;99.90;;;;;;5062635;28;20506;-61
2022/03/10 04:40:45;;;;;;;6.78;5.55;;;7.80;99.90;;;;;;5062258;28;20080;-61
2022/03/10 04:43:12;;;;;;;6.28;5.25;;;7.80;99.90;;;;;;5062940;28;20052;-61
2022/03/10 04:45:39;;;;;;;5.88;5.13;;;7.80;99.90;;;;;;5062634;28;20073;-61
2022/03/10 04:48:06;;;;;;;6.00;4.78;;;7.80;99.90;;;;;;5061970;28;20098;-61
2022/03/10 04:50:33;;;;;;;7.47;5.43;;;7.80;99.90;;;;;;5061494;28;20048;-62
2022/03/10 04:53:00;;;;;;;6.20;5.13;;;7.80;99.90;;;;;;5062677;28;20098;-61
2022/03/10 04:55:27;;;;;;;7.75;5.55;;;7.80;99.90;;;;;;5061438;28;20652;-61
2022/03/10 04:57:53;;;;;;;7.15;5.05;;;7.80;99.90;;;;;;5063046;28;20135;-61
2022/03/10 05:00:21;;;;;;;8.63;6.32;;;7.80;99.90;;;;;;5062246;28;20087;-61
2022/03/10 05:02:48;;;;;;;6.55;5.25;;;7.80;99.90;;;;;;5062420;28;20413;-61
2022/03/10 05:05:17;;;;;;;7.63;6.25;;;7.80;99.90;;;;;;5062971;28;20111;-61
2022/03/10 05:07:44;;;;;;;7.78;6.45;;;7.80;99.90;;;;;;5066986;28;20404;-61
2022/03/10 05:10:12;;;;;;;7.65;5.80;;;7.80;99.90;;;;;;5048629;28;20088;-61
2022/03/10 05:12:56;;;;;;;7.95;5.55;;;7.80;99.90;;;;;;5049189;28;20528;-61
2022/03/10 05:15:24;;;;;;;7.25;6.10;;;7.80;99.90;;;;;;5065264;28;20076;-61
2022/03/10 05:17:52;;;;;;;7.15;6.32;;;7.80;99.90;;;;;;5066162;28;20048;-61
2022/03/10 05:20:19;;;;;;;6.65;5.53;;;7.80;99.90;;;;;;5046888;28;20045;-61
2022/03/10 05:22:50;;;;;;;9.02;6.85;;;7.80;99.90;;;;;;5066562;28;20143;-61
2022/03/10 05:25:17;;;;;;;7.63;6.18;;;7.80;99.90;;;;;;5064680;28;20083;-60
2022/03/10 05:27:44;;;;;;;7.95;5.65;;;7.80;99.90;;;;;;5065911;28;20088;-62
2022/03/10 05:30:11;;;;;;;6.28;5.47;;;7.80;99.90;;;;;;5065736;28;20144;-62
2022/03/10 05:32:38;;;;;;;7.45;5.85;;;7.80;99.90;;;;;;5065547;28;20067;-60
2022/03/10 05:35:06;;;;;;;6.57;5.45;;;7.70;99.90;;;;;;5064564;28;20052;-61
2022/03/10 05:37:35;;;;;;;8.63;6.50;;;7.70;99.90;;;;;;5066422;28;20443;-61
2022/03/10 05:40:04;;;;;;;6.53;5.10;;;7.70;99.90;;;;;;5048296;28;20135;-61
2022/03/10 05:42:31;;;;;;;6.53;5.20;;;7.70;99.90;;;;;;5065800;28;20072;-61
2022/03/10 05:44:58;;;;;;;7.75;6.40;;;7.60;99.90;;;;;;5065585;28;20234;-61
2022/03/10 05:47:24;;;;;;;7.78;6.20;;;7.60;99.90;;;;;;5065515;28;20147;-61
2022/03/10 05:49:51;;;;;;;6.82;5.38;;;7.60;99.90;;;;;;5063877;28;20083;-61
2022/03/10 05:52:18;;;;;;;6.40;5.47;;;7.60;99.90;;;;;;5065749;28;20099;-61
2022/03/10 05:54:49;;;;;;;7.38;5.50;;;7.60;99.90;;;;;;5065101;28;20360;-61
2022/03/10 05:57:16;;;;;;;6.63;5.50;;;7.60;99.90;;;;;;5065380;28;20539;-62
2022/03/10 05:59:45;;;;;;;7.35;5.60;;;7.60;99.90;;;;;;5047881;28;20044;-61
2022/03/10 06:02:14;;;;;;;7.43;5.47;;;7.60;99.90;;;;;;5064455;28;20052;-61
2022/03/10 06:04:41;;;;;;;6.72;5.63;;;7.70;99.90;;;;;;5060577;28;20048;-61
2022/03/10 06:07:08;;;;;;;6.78;5.53;;;7.70;99.90;;;;;;5063042;28;20547;-61
2022/03/10 06:09:35;;;;;;;6.75;5.70;;;7.80;99.90;;;;;;5057898;28;20558;-61
2022/03/10 06:12:02;;;;;;;7.65;5.53;;;7.80;99.90;;;;;;5057519;28;20107;-61
2022/03/10 06:14:31;;;;;;;6.65;5.88;;;7.90;99.90;;;;;;5062090;28;20048;-61
2022/03/10 06:16:58;;;;;;;6.97;5.55;;;7.90;99.90;;;;;;5060044;28;20120;-61
2022/03/10 06:19:25;;;;;;;6.95;6.07;;;8.00;99.90;;;;;;5046615;28;20041;-61
2022/03/10 06:21:52;;;;;;;8.20;6.15;;;8.00;99.90;;;;;;5056216;28;20076;-61
2022/03/10 06:24:20;;;;;;;6.43;5.60;;;8.00;99.90;;;;;;5056820;28;20060;-61
2022/03/10 06:26:47;;;;;;;7.72;6.20;;;8.10;99.90;;;;;;5051929;28;20364;-62
2022/03/10 06:29:14;;;;;;;6.57;5.88;;;8.20;99.90;;;;;;5051161;28;20111;-61
2022/03/10 06:31:40;;;;;;;8.27;6.93;;;8.20;99.90;;;;;;5033533;28;20234;-62
2022/03/10 06:34:09;;;;;;;7.00;6.18;;;8.30;99.90;;;;;;5049886;28;20044;-60
2022/03/10 06:36:36;;;;;;;6.88;6.15;;;8.30;99.90;;;;;;5032311;28;20317;-61
2022/03/10 06:39:03;;;;;;;6.78;5.53;;;8.40;99.90;;;;;;5053762;28;20745;-61
2022/03/10 06:41:30;;;;;;;6.90;5.78;;;8.40;99.90;;;;;;5051887;28;20049;-62
2022/03/10 06:43:56;;;;;;;6.85;5.75;;;8.50;99.90;;;;;;5050428;28;20432;-62
2022/03/10 06:46:24;;;;;;;6.55;5.85;;;8.60;99.90;;;;;;5017686;28;20379;-61
2022/03/10 06:48:50;;;;;;;6.95;5.57;;;8.60;99.90;;;;;;5047776;28;20045;-61
2022/03/10 06:51:17;;;;;;;8.05;5.72;;;8.70;99.90;;;;;;5054028;28;20139;-61
2022/03/10 06:53:44;;;;;;;7.43;6.07;;;8.70;99.90;;;;;;5059056;28;20072;-62
2022/03/10 06:56:11;;;;;;;6.88;6.03;;;8.70;99.90;;;;;;5051378;28;20128;-61
2022/03/10 06:58:37;;;;;;;6.95;6.22;;;8.70;99.90;;;;;;5045405;28;20047;-61
2022/03/10 07:01:04;;;;;;;7.57;6.22;;;8.70;99.90;;;;;;5058600;28;20051;-61
2022/03/10 07:03:31;;;;;;;7.72;5.60;;;8.70;99.90;;;;;;5052899;28;20052;-61
2022/03/10 07:05:59;;;;;;;6.72;6.00;;;8.70;99.90;;;;;;5056462;28;20168;-61
2022/03/10 07:08:25;;;;;;;9.48;6.90;;;8.70;99.90;;;;;;5049436;28;20492;-61
2022/03/10 07:10:52;;;;;;;6.32;5.43;;;8.80;99.90;;;;;;5046354;28;20502;-61
2022/03/10 07:13:20;;;;;;;6.30;5.63;;;8.80;99.90;;;;;;5052082;28;20136;-60
2022/03/10 07:15:46;;;;;;;8.10;6.28;;;8.90;99.90;;;;;;5024233;28;20159;-60
2022/03/10 07:18:13;;;;;;;8.10;6.50;;;8.90;99.90;;;;;;5052016;28;20063;-62
2022/03/10 07:20:40;;;;;;;7.68;6.88;;;9.00;99.90;;;;;;5049095;28;20160;-61
2022/03/10 07:23:07;;;;;;;7.43;6.32;;;9.00;99.90;;;;;;5058636;28;20588;-61
2022/03/10 07:25:34;;;;;;;10.20;6.78;;;9.00;99.90;;;;;;5058360;28;20106;-61
2022/03/10 07:28:00;;;;;;;8.70;7.28;;;9.10;99.90;;;;;;5052544;28;20056;-60
2022/03/10 07:30:27;;;;;;;7.53;6.68;;;9.10;99.90;;;;;;5057626;28;20075;-61
2022/03/10 07:32:55;;;;;;;8.63;7.35;;;9.10;99.90;;;;;;5056643;28;20044;-61
2022/03/10 07:35:22;;;;;;;7.60;6.80;;;9.20;99.90;;;;;;5039024;28;20214;-61
2022/03/10 07:37:49;;;;;;;9.18;7.50;;;9.30;99.90;;;;;;5056232;28;20466;-60
2022/03/10 07:40:16;;;;;;;8.98;8.05;;;9.40;99.90;;;;;;5057563;28;20107;-61
2022/03/10 07:42:43;;;;;;;8.00;7.18;;;9.40;99.90;;;;;;5057744;28;20141;-61
2022/03/10 07:45:10;;;;;;;7.88;6.57;;;9.50;99.90;;;;;;5058432;28;20113;-60
2022/03/10 07:47:37;;;;;;;7.22;6.35;;;9.60;99.90;;;;;;5039687;28;20062;-60
2022/03/10 07:50:05;;;;;;;9.05;7.03;;;9.70;99.90;;;;;;5039715;28;20426;-61
2022/03/10 07:52:32;;;;;;;9.25;8.10;;;9.80;99.90;;;;;;5058440;28;20084;-60
2022/03/10 07:55:03;;;;;;;8.05;7.20;;;9.80;99.90;;;;;;5058682;28;20052;-60
2022/03/10 07:57:30;;;;;;;9.20;7.03;;;9.80;99.90;;;;;;5058423;28;20479;-61
2022/03/10 07:59:56;;;;;;;8.43;7.55;;;9.90;99.90;;;;;;5040200;28;20054;-60
2022/03/10 08:02:23;;;;;;;9.07;7.82;;;9.90;99.90;;;;;;5058315;28;20432;-60
2022/03/10 08:04:50;;;;;;;9.98;8.68;;;9.90;99.90;;;;;;5056878;28;20104;-61
2022/03/10 08:07:17;;;;;;;8.68;7.78;;;9.90;99.90;;;;;;5057610;28;20620;-61
2022/03/10 08:09:46;;;;;;;9.55;8.50;;;9.90;99.90;;;;;;5058262;28;20093;-61
2022/03/10 08:12:13;;;;;;;8.88;7.43;;;10.00;99.90;;;;;;5057388;28;20062;-61
2022/03/10 08:14:40;;;;;;;8.23;7.13;;;10.00;99.90;;;;;;5057509;28;20052;-61
2022/03/10 08:17:09;;;;;;;8.73;7.72;;;10.10;99.90;;;;;;5039875;28;20318;-61
2022/03/10 08:19:36;;;;;;;8.82;7.93;;;10.20;99.90;;;;;;5056667;28;20108;-61
2022/03/10 08:22:06;;;;;;;9.45;7.50;;;10.40;99.90;;;;;;5057771;28;20139;-61
2022/03/10 08:24:32;;;;;;;7.88;6.80;;;10.40;99.90;;;;;;5057439;28;20048;-61
2022/03/10 08:26:59;;;;;;;9.93;7.88;;;10.50;99.90;;;;;;5055858;28;20084;-60
2022/03/10 08:29:26;;;;;;;9.80;7.60;;;10.70;99.90;;;;;;5049363;28;20220;-61
2022/03/10 08:31:53;;;;;;;9.18;7.28;;;10.80;99.90;;;;;;5044015;28;20127;-61
2022/03/10 08:34:19;;;;;;;8.05;7.22;;;10.90;99.90;;;;;;5051005;28;20370;-61
2022/03/10 08:36:46;;;;;;;10.25;8.32;;;11.00;99.90;;;;;;5046468;28;20491;-61
2022/03/10 08:39:15;;;;;;;7.32;6.32;;;11.00;99.90;;;;;;5062100;28;20051;-61
2022/03/10 08:41:42;;;;;;;8.07;7.10;;;11.10;99.90;;;;;;5071061;28;20195;-59
2022/03/10 08:44:10;;;;;;;8.10;7.22;;;11.20;99.90;;;;;;5046534;28;20134;-60
2022/03/10 08:46:37;;;;;;;8.07;6.53;;;11.20;99.90;;;;;;5064147;28;20083;-60
2022/03/10 08:49:04;;;;;;;7.60;6.47;;;11.30;99.90;;;;;;5058375;28;20075;-59
2022/03/10 08:51:31;;;;;;;8.13;6.93;;;11.40;99.90;;;;;;5059792;28;20156;-60
2022/03/10 08:53:58;;;;;;;7.90;6.70;;;11.50;99.90;;;;;;5057229;28;20044;-59
2022/03/10 08:56:24;;;;;;;8.00;6.53;;;11.60;99.90;;;;;;5049169;28;20125;-59
2022/03/10 08:58:51;;;;;;;6.85;5.78;;;11.80;99.90;;;;;;5056364;28;20555;-60
2022/03/10 09:01:18;;;;;;;6.80;6.03;;;11.90;99.90;;;;;;5049359;28;20087;-60
2022/03/10 09:03:51;;;;;;;8.35;6.68;;;12.10;99.90;;;;;;5061407;28;20059;-60
2022/03/10 09:06:18;;;;;;;7.65;6.05;;;12.20;99.90;;;;;;5063490;28;20049;-60
2022/03/10 09:08:45;;;;;;;5.95;5.35;;;12.30;99.90;;;;;;5042335;28;20048;-60
2022/03/10 09:11:12;;;;;;;8.93;6.63;;;12.40;99.90;;;;;;5048657;28;20109;-60
2022/03/10 09:13:43;;;;;;;7.32;6.55;;;12.50;99.90;;;;;;5053715;28;20519;-60
2022/03/10 09:16:10;;;;;;;6.05;5.40;;;12.60;99.90;;;;;;5044856;28;20586;-60
2022/03/10 09:18:37;;;;;;;7.20;5.30;;;12.70;99.90;;;;;;5061940;28;20065;-60
2022/03/10 09:21:05;;;;;;;7.43;5.72;;;12.80;99.90;;;;;;5064081;28;20454;-61
2022/03/10 09:23:31;;;;;;;5.22;4.55;;;12.90;99.90;;;;;;5054446;28;20096;-60
2022/03/10 09:25:58;;;;;;;5.80;4.88;;;13.00;99.90;;;;;;5062513;28;20133;-60
2022/03/10 09:28:25;;;;;;;5.93;5.32;;;13.10;99.90;;;;;;5050952;28;20149;-60
2022/03/10 09:30:52;;;;;;;4.80;4.30;;;13.20;99.90;;;;;;5053105;28;20133;-60
2022/03/10 09:33:19;;;;;;;4.78;4.30;;;13.30;99.90;;;;;;5054267;28;20056;-59
2022/03/10 09:35:45;;;;;;;6.07;5.47;;;13.30;99.90;;;;;;5060818;28;20151;-60
2022/03/10 09:38:17;;;;;;;5.75;4.50;;;13.30;99.90;;;;;;5044515;28;20061;-60
2022/03/10 09:40:46;;;;;;;5.72;5.07;;;13.40;99.90;;;;;;5040696;28;20514;-60
2022/03/10 09:43:13;;;;;;;4.97;4.45;;;13.40;99.90;;;;;;5054989;28;20579;-60
2022/03/10 09:45:40;;;;;;;4.85;3.90;;;13.40;99.90;;;;;;5052065;28;20343;-60
2022/03/10 09:48:07;;;;;;;5.13;4.50;;;13.50;99.90;;;;;;5030504;28;20052;-59
2022/03/10 09:50:35;;;;;;;5.53;4.95;;;13.60;99.90;;;;;;5043234;28;20044;-60
2022/03/10 09:53:02;;;;;;;5.97;4.50;;;13.80;99.90;;;;;;5042026;28;20131;-60
2022/03/10 09:55:29;;;;;;;5.90;4.90;;;13.90;99.90;;;;;;5053547;28;20587;-60
2022/03/10 09:57:56;;;;;;;6.10;4.95;;;14.00;99.90;;;;;;5054810;28;20513;-59
2022/03/10 10:00:22;;;;;;;5.75;4.63;;;14.10;99.90;;;;;;5026506;28;20194;-61
2022/03/10 10:02:51;;;;;;;6.63;5.95;;;14.00;99.90;;;;;;5058395;28;20538;-60
2022/03/10 10:05:24;;;;;;;5.97;5.10;;;14.00;99.90;;;;;;5058551;28;20098;-60
2022/03/10 10:08:09;;;;;;;5.53;4.93;;;14.10;99.90;;;;;;5041418;28;20160;-59
2022/03/10 10:10:42;;;;;;;6.25;4.70;;;14.20;99.90;;;;;;5058847;28;20626;-60
2022/03/10 10:13:42;;;;;;;6.15;4.78;;;14.30;99.90;;;;;;5055479;28;20514;-60
2022/03/10 10:16:09;;;;;;;;;;;14.50;99.90;;;;;;5046201;28;20491;-60
2022/03/10 10:18:37;;;;;;;4.70;4.22;;;14.60;99.90;;;;;;5058990;28;20448;-60
2022/03/10 10:21:14;;;;;;;4.80;3.83;;;14.70;99.90;;;;;;5054118;28;20059;-60
2022/03/10 10:23:41;;;;;;;6.28;4.63;;;14.80;99.90;;;;;;5059362;28;20048;-60
2022/03/10 10:26:09;;;;;;;6.40;4.68;;;14.90;99.90;;;;;;5055002;28;20593;-60
2022/03/10 10:28:44;;;;;;;5.00;4.32;;;14.90;99.90;;;;;;5057664;28;20134;-62
2022/03/10 10:31:11;;;;;;;5.00;4.30;;;14.90;99.90;;;;;;5046431;28;20502;-60
2022/03/10 10:33:42;;;;;;;5.15;4.65;;;15.00;99.90;;;;;;5052572;28;20526;-60
2022/03/10 10:36:16;;;;;;;6.38;4.72;;;15.00;99.90;;;;;;5044065;28;20127;-60
2022/03/10 10:38:46;;;;;;;6.13;4.50;;;15.00;99.90;;;;;;5054882;28;20094;-61
2022/03/10 10:41:30;;;;;;;5.43;4.55;;;14.90;99.90;;;;;;5051698;28;20658;-61
2022/03/10 10:44:00;;;;;;;;;;;14.80;99.90;;;;;;5057304;28;20048;-62
2022/03/10 10:46:34;;;;;;;3.92;3.40;;;14.80;99.90;;;;;;5048136;28;20019;-60
2022/03/10 10:49:15;;;;;;;5.13;4.13;;;14.90;99.90;;;;;;5058686;28;20068;-59
2022/03/10 10:51:55;;;;;;;4.10;3.45;;;14.90;99.90;;;;;;5048023;28;20048;-60
2022/03/10 10:54:27;;;;;;;4.30;3.15;;;15.10;99.90;;;;;;5057481;28;20131;-61
2022/03/10 10:56:58;;;;;;;5.72;3.97;;;15.20;99.90;;;;;;5035104;28;20051;-61
2022/03/10 10:59:35;;;;;;;4.50;3.85;;;15.30;99.90;;;;;;5055065;28;20151;-61
2022/03/10 11:02:19;;;;;;;4.32;3.75;;;15.40;99.90;;;;;;5038208;28;20142;-62
2022/03/10 11:04:50;;;;;;;4.78;3.60;;;15.50;99.90;;;;;;5043580;28;20420;-61
2022/03/10 11:07:18;;;;;;;4.32;3.00;;;15.60;99.90;;;;;;5039302;28;20040;-61
2022/03/10 11:09:46;;;;;;;4.55;3.60;;;15.50;99.90;;;;;;5046441;28;20048;-62
2022/03/10 11:12:15;;;;;;;4.20;3.30;;;15.30;99.90;;;;;;5058629;28;20052;-61
2022/03/10 11:14:43;;;;;;;3.22;2.67;;;15.20;99.90;;;;;;5050756;28;20080;-62
2022/03/10 11:17:12;;;;;;;3.20;2.50;;;15.10;99.90;;;;;;5052768;28;20149;-61
2022/03/10 11:19:44;;;;;;;3.55;2.58;;;15.00;99.90;;;;;;5057866;28;20215;-61
2022/03/10 11:22:20;;;;;;;3.15;2.67;;;15.10;99.90;;;;;;5053913;28;20123;-61
2022/03/10 11:25:24;;;;;;;3.38;2.40;;;15.20;99.90;;;;;;5058490;28;20132;-62
2022/03/10 11:28:18;;;;;;;3.40;2.35;;;15.20;99.90;;;;;;5058172;28;20143;-61
2022/03/10 11:31:00;;;;;;;4.18;2.67;;;15.30;99.90;;;;;;5041778;28;20293;-61
2022/03/10 11:33:34;;;;;;;3.17;2.30;;;15.30;99.90;;;;;;5015579;28;20190;-61
2022/03/10 11:36:17;;;;;;;3.05;2.20;;;15.50;99.90;;;;;;5038902;28;20083;-61
2022/03/10 11:38:54;;;;;;;2.65;2.05;;;15.60;99.90;;;;;;5027894;28;20411;-62
2022/03/10 11:41:25;;;;;;;3.20;2.10;;;15.90;99.90;;;;;;5057289;28;20089;-61
2022/03/10 11:44:00;;;;;;;2.95;2.25;;;16.00;99.90;;;;;;5053974;28;20631;-62
2022/03/10 11:46:30;;;;;;;2.63;2.00;;;16.20;99.90;;;;;;5048856;28;20213;-60
2022/03/10 11:49:04;;;;;;;2.97;2.08;;;16.50;99.90;;;;;;5057893;28;20106;-61
2022/03/10 11:51:56;;;;;;;2.70;2.00;;;16.60;99.90;;;;;;5046216;28;20091;-62
2022/03/10 11:54:25;;;;;;;2.38;1.85;;;16.70;99.90;;;;;;5057651;28;20140;-61
2022/03/10 11:56:51;;;;;;;2.60;1.83;;;16.70;99.90;;;;;;5057920;28;20109;-62
2022/03/10 11:59:22;;;;;;;2.65;2.00;;;16.90;99.90;;;;;;5058761;28;20057;-61
2022/03/10 12:01:48;;;;;;;3.30;2.38;;;17.10;99.90;;;;;;5056213;28;20114;-61
2022/03/10 12:04:17;;;;;;;3.80;2.65;;;17.20;99.90;;;;;;5051572;28;20044;-62
2022/03/10 12:06:49;;;;;;;3.05;2.10;;;17.40;99.90;;;;;;5048860;28;20049;-62
2022/03/10 12:09:30;;;;;;;3.03;2.00;;;17.40;99.90;;;;;;5054709;28;20068;-62
2022/03/10 12:12:19;;;;;;;3.00;2.10;;;17.30;99.90;;;;;;5053196;28;20701;-61
2022/03/10 12:15:26;;;;;;;3.40;2.22;;;17.30;99.90;;;;;;5046978;28;20052;-61
2022/03/10 12:17:55;;;;;;;2.88;1.73;;;17.80;99.90;;;;;;5056932;28;20045;-61
2022/03/10 12:20:38;;;;;;;2.20;1.50;;;18.30;99.90;;;;;;5056853;28;20048;-61
2022/03/10 12:23:10;;;;;;;2.70;1.83;;;18.60;99.90;;;;;;5057524;28;20144;-60
2022/03/10 12:25:38;;;;;;;2.47;1.75;;;18.70;99.90;;;;;;5057971;28;20148;-61
2022/03/10 12:28:05;;;;;;;2.42;2.00;;;18.90;99.90;;;;;;5058140;28;20324;-61
2022/03/10 12:30:31;;;;;;;2.20;1.90;;;19.20;99.90;;;;;;5057856;28;20098;-62
2022/03/10 12:32:58;;;;;;;2.55;1.90;;;19.20;99.90;;;;;;5051375;28;20226;-61
2022/03/10 12:35:30;;;;;;;2.90;1.90;;;19.50;99.90;;;;;;5056965;28;20132;-61
2022/03/10 12:37:56;;;;;;;2.72;1.70;;;19.90;99.90;;;;;;5058275;28;20191;-61
2022/03/10 12:40:28;;;;;;;2.50;1.90;;;20.20;99.90;;;;;;5057730;28;20464;-61
2022/03/10 12:43:02;;;;;;;2.05;1.70;;;20.40;99.90;;;;;;5057821;28;20556;-61
2022/03/10 12:45:29;;;;;;;2.08;1.52;;;20.40;99.90;;;;;;5058396;28;20119;-61
2022/03/10 12:47:59;;;;;;;2.20;1.70;;;20.60;99.90;;;;;;5057432;28;20288;-60
2022/03/10 12:50:27;;;;;;;3.58;2.20;;;20.60;99.90;;;;;;5057331;28;20402;-60
2022/03/10 12:52:55;;;;;;;3.42;1.98;;;20.80;99.90;;;;;;5023509;28;20135;-62
2022/03/10 12:55:26;;;;;;;2.65;1.98;;;20.90;99.90;;;;;;5057692;28;20529;-61
2022/03/10 12:57:59;;;;;;;2.00;1.70;;;20.50;99.90;;;;;;5058045;28;20385;-62
2022/03/10 13:00:26;;;;;;;1.77;1.67;;;20.80;99.90;;;;;;5057947;28;20155;-62
2022/03/10 13:02:59;;;;;;;1.95;1.67;;;20.70;99.90;;;;;;5057286;28;20491;-61
2022/03/10 13:05:29;;;;;;;2.13;1.70;;;20.60;99.90;;;;;;5025310;28;20052;-62
2022/03/10 13:08:15;;;;;;;3.55;1.70;;;20.10;99.90;;;;;;5046990;28;20056;-61